Time;durP1;ratioP1;P1;durP2;ratioP2;P2;SDS_P1;SDS_P2;PMS_P1;PMS_P2;Temp;Humidity;BMP_temperature;BMP_pressure;BME280_temperature;BME280_humidity;BME280_pressure;Samples;Min_cycle;Max_cycle;Signal;HPM_P1;HPM_P2
2021/05/27 00:00:33;;;;;;;11.38;5.65;;;11.10;89.60;;;;;;2056704;28;20027;-84
2021/05/27 00:01:33;;;;;;;9.43;5.85;;;11.10;89.60;;;;;;2061794;28;20378;-84
2021/05/27 00:02:34;;;;;;;8.88;5.60;;;11.00;89.60;;;;;;2067341;28;20032;-84
2021/05/27 00:03:35;;;;;;;12.95;5.43;;;11.00;89.60;;;;;;2072894;28;20124;-85
2021/05/27 00:04:36;;;;;;;10.50;5.18;;;11.00;89.50;;;;;;2069381;28;20041;-84
2021/05/27 00:05:37;;;;;;;11.27;5.78;;;11.00;89.50;;;;;;2071869;28;20416;-85
2021/05/27 00:06:37;;;;;;;10.23;5.22;;;11.00;89.50;;;;;;2064254;28;20050;-84
2021/05/27 00:07:38;;;;;;;9.68;4.97;;;11.00;89.50;;;;;;2072377;28;20042;-84
2021/05/27 00:08:39;;;;;;;9.35;5.15;;;11.00;89.50;;;;;;2064042;28;20034;-84
2021/05/27 00:09:39;;;;;;;10.65;5.50;;;11.00;89.50;;;;;;2071368;28;20068;-84
2021/05/27 00:10:40;;;;;;;7.95;5.10;;;11.00;89.50;;;;;;2068661;28;20173;-84
2021/05/27 00:11:41;;;;;;;11.40;5.22;;;11.00;89.50;;;;;;2076713;28;20050;-85
2021/05/27 00:12:42;;;;;;;9.82;5.78;;;11.00;89.40;;;;;;2074503;28;20068;-85
2021/05/27 00:13:43;;;;;;;7.60;4.97;;;11.00;89.40;;;;;;2074344;28;20025;-85
2021/05/27 00:14:43;;;;;;;10.60;5.25;;;11.00;89.40;;;;;;2075868;28;20037;-85
2021/05/27 00:15:44;;;;;;;10.30;5.38;;;11.00;90.00;;;;;;2064517;28;20030;-84
2021/05/27 00:16:45;;;;;;;8.43;5.05;;;11.00;89.40;;;;;;2064566;28;20022;-85
2021/05/27 00:17:45;;;;;;;11.23;5.22;;;10.90;89.30;;;;;;2063565;28;20626;-85
2021/05/27 00:18:51;;;;;;;11.88;6.03;;;11.00;89.40;;;;;;2064764;28;20035;-85
2021/05/27 00:19:52;;;;;;;10.73;5.22;;;11.00;89.40;;;;;;2065579;28;20073;-85
2021/05/27 00:20:53;;;;;;;8.45;5.30;;;10.90;89.40;;;;;;2064770;28;20026;-85
2021/05/27 00:21:53;;;;;;;12.18;5.43;;;10.90;89.40;;;;;;2048397;28;20130;-84
2021/05/27 00:22:54;;;;;;;10.43;5.20;;;10.90;89.40;;;;;;2056933;28;20047;-84
2021/05/27 00:23:55;;;;;;;9.65;4.70;;;10.90;89.50;;;;;;2071457;28;20022;-84
2021/05/27 00:24:55;;;;;;;7.78;4.93;;;10.90;89.50;;;;;;2062077;28;20035;-85
2021/05/27 00:25:56;;;;;;;8.88;4.88;;;10.90;89.50;;;;;;2048583;28;20059;-85
2021/05/27 00:26:57;;;;;;;7.78;5.10;;;10.90;89.60;;;;;;2056344;28;20034;-85
2021/05/27 00:27:57;;;;;;;9.95;5.13;;;10.80;89.60;;;;;;2072016;28;20033;-85
2021/05/27 00:28:58;;;;;;;9.70;5.03;;;10.80;89.50;;;;;;2063871;28;20035;-85
2021/05/27 00:29:59;;;;;;;10.10;5.00;;;10.80;89.60;;;;;;2056384;28;20454;-84
2021/05/27 00:31:00;;;;;;;8.07;4.70;;;10.80;89.60;;;;;;2064855;28;20025;-85
2021/05/27 00:32:01;;;;;;;9.32;5.18;;;10.80;89.60;;;;;;2064376;28;20027;-85
2021/05/27 00:33:01;;;;;;;8.18;4.78;;;10.80;89.60;;;;;;2072735;28;20096;-85
2021/05/27 00:34:03;;;;;;;9.10;4.93;;;10.80;89.60;;;;;;2080890;28;20484;-84
2021/05/27 00:35:05;;;;;;;10.05;4.95;;;10.80;89.70;;;;;;2072520;28;20030;-85
2021/05/27 00:36:05;;;;;;;7.13;4.40;;;10.80;89.70;;;;;;2054383;28;20026;-84
2021/05/27 00:37:06;;;;;;;10.10;5.45;;;10.80;89.70;;;;;;2056871;28;20484;-85
2021/05/27 00:38:07;;;;;;;8.82;5.03;;;10.80;89.70;;;;;;2071530;28;20084;-84
2021/05/27 00:39:07;;;;;;;12.15;5.47;;;10.80;89.80;;;;;;2071897;28;20393;-84
2021/05/27 00:40:11;;;;;;;11.05;5.25;;;10.80;89.80;;;;;;2072315;28;20085;-85
2021/05/27 00:41:11;;;;;;;9.43;5.40;;;10.80;89.80;;;;;;2065558;28;20108;-85
2021/05/27 00:42:12;;;;;;;9.45;5.15;;;10.80;89.90;;;;;;2080735;28;20384;-85
2021/05/27 00:43:13;;;;;;;9.68;5.30;;;10.80;89.90;;;;;;2072582;28;20045;-84
2021/05/27 00:44:27;;;;;;;9.50;5.15;;;10.70;89.90;;;;;;2064289;28;20034;-86
2021/05/27 00:45:28;;;;;;;9.10;4.57;;;10.70;89.90;;;;;;2065957;28;20077;-85
2021/05/27 00:46:28;;;;;;;10.45;5.00;;;10.70;89.90;;;;;;2065280;28;20512;-85
2021/05/27 00:47:29;;;;;;;11.15;5.18;;;10.80;90.20;;;;;;2064650;28;20046;-85
2021/05/27 00:49:49;;;;;;;10.48;5.07;;;10.70;89.90;;;;;;2075807;28;20149;-84
2021/05/27 00:50:50;;;;;;;10.82;5.35;;;10.70;89.90;;;;;;2072580;28;20217;-85
2021/05/27 00:51:51;;;;;;;10.15;5.70;;;10.70;89.90;;;;;;2072423;28;20030;-85
2021/05/27 00:52:57;;;;;;;12.70;5.43;;;10.70;89.90;;;;;;2071008;28;20520;-83
2021/05/27 00:53:58;;;;;;;10.50;5.25;;;10.70;90.00;;;;;;2088906;28;20021;-84
2021/05/27 00:55:00;;;;;;;10.32;5.20;;;10.70;90.00;;;;;;2083165;28;20475;-84
2021/05/27 00:56:01;;;;;;;10.63;5.18;;;10.70;90.00;;;;;;2076641;28;20472;-85
2021/05/27 00:57:04;;;;;;;8.90;5.32;;;10.70;90.00;;;;;;2083233;28;20080;-84
2021/05/27 00:58:05;;;;;;;10.57;5.30;;;10.70;90.00;;;;;;2076082;28;20033;-84
2021/05/27 00:59:06;;;;;;;9.25;4.95;;;10.70;90.00;;;;;;2063767;28;20065;-85
2021/05/27 01:00:10;;;;;;;9.10;4.63;;;10.70;90.00;;;;;;2072582;28;20081;-85
2021/05/27 01:01:11;;;;;;;9.88;5.00;;;10.70;90.00;;;;;;2080592;28;20025;-84
2021/05/27 01:02:12;;;;;;;9.95;4.45;;;10.70;90.00;;;;;;2080329;28;20060;-84
2021/05/27 01:03:12;;;;;;;11.07;5.45;;;10.70;90.10;;;;;;2064339;28;20033;-84
2021/05/27 01:04:13;;;;;;;12.07;4.93;;;10.70;90.10;;;;;;2065276;28;20547;-84
2021/05/27 01:05:15;;;;;;;8.25;5.03;;;10.70;90.10;;;;;;2073367;28;20034;-84
2021/05/27 01:06:15;;;;;;;9.95;5.05;;;10.70;90.10;;;;;;2069296;28;20049;-85
2021/05/27 01:07:16;;;;;;;10.38;5.50;;;10.60;90.10;;;;;;2066548;28;20023;-84
2021/05/27 01:08:17;;;;;;;10.10;5.05;;;10.60;90.10;;;;;;2055968;28;20081;-84
2021/05/27 01:09:17;;;;;;;13.90;5.20;;;10.60;90.10;;;;;;2056143;28;20031;-84
2021/05/27 01:10:18;;;;;;;8.63;4.90;;;10.60;90.20;;;;;;2072074;28;20109;-84
2021/05/27 01:11:19;;;;;;;8.55;5.13;;;10.60;90.20;;;;;;2077886;28;20025;-84
2021/05/27 01:12:19;;;;;;;8.25;5.05;;;10.60;90.20;;;;;;2075183;28;20033;-83
2021/05/27 01:13:21;;;;;;;9.63;5.22;;;10.60;90.20;;;;;;2064420;28;20088;-84
2021/05/27 01:15:41;;;;;;;11.18;5.72;;;10.50;90.20;;;;;;2073334;28;20176;-83
2021/05/27 01:16:42;;;;;;;9.20;5.45;;;10.50;90.20;;;;;;2067433;28;20101;-83
2021/05/27 01:17:42;;;;;;;9.10;5.25;;;10.50;90.20;;;;;;2064148;28;20030;-83
2021/05/27 01:18:43;;;;;;;8.48;5.03;;;10.50;90.30;;;;;;2075876;28;20076;-83
2021/05/27 01:19:44;;;;;;;9.13;5.00;;;10.50;90.30;;;;;;2078029;28;20025;-83
2021/05/27 01:20:50;;;;;;;9.48;5.10;;;10.50;90.30;;;;;;2075405;28;20029;-83
2021/05/27 01:21:51;;;;;;;8.35;5.00;;;10.50;90.30;;;;;;2074419;28;20053;-83
2021/05/27 01:22:52;;;;;;;9.70;5.43;;;10.50;90.30;;;;;;2063767;28;20042;-83
2021/05/27 01:23:52;;;;;;;11.30;5.40;;;10.50;90.40;;;;;;2064215;28;20022;-83
2021/05/27 01:24:53;;;;;;;10.75;5.07;;;10.50;90.40;;;;;;2070933;28;20045;-83
2021/05/27 01:25:57;;;;;;;9.57;5.30;;;10.50;90.50;;;;;;2070894;28;20046;-83
2021/05/27 01:26:57;;;;;;;9.45;4.80;;;10.40;90.50;;;;;;2075048;28;20026;-83
2021/05/27 01:27:58;;;;;;;8.30;4.90;;;10.40;90.50;;;;;;2073837;28;20610;-83
2021/05/27 01:28:59;;;;;;;8.32;4.65;;;10.40;90.50;;;;;;2070616;28;20098;-84
2021/05/27 01:30:00;;;;;;;8.88;4.50;;;10.40;90.50;;;;;;2063800;28;20038;-84
2021/05/27 01:31:02;;;;;;;8.43;4.72;;;10.40;90.50;;;;;;2064099;28;20031;-83
2021/05/27 01:32:03;;;;;;;7.40;4.18;;;10.40;90.50;;;;;;2075309;28;20067;-84
2021/05/27 01:33:04;;;;;;;8.43;4.70;;;10.40;90.50;;;;;;2079089;28;20471;-83
2021/05/27 01:34:07;;;;;;;7.88;4.47;;;10.40;90.50;;;;;;2073546;28;20058;-84
2021/05/27 01:35:15;;;;;;;6.85;3.95;;;10.40;90.60;;;;;;2072071;28;20473;-84
2021/05/27 01:36:15;;;;;;;6.22;4.40;;;10.40;90.60;;;;;;2067144;28;20575;-84
2021/05/27 01:37:16;;;;;;;9.40;4.22;;;10.40;90.60;;;;;;2068155;28;20051;-84
2021/05/27 01:38:19;;;;;;;7.25;4.40;;;10.40;90.90;;;;;;2063843;28;20097;-84
2021/05/27 01:39:20;;;;;;;7.22;4.32;;;10.40;90.60;;;;;;2064694;28;20077;-83
2021/05/27 01:40:25;;;;;;;8.35;4.40;;;10.30;90.60;;;;;;2063985;28;20031;-83
2021/05/27 01:41:26;;;;;;;6.60;4.15;;;10.40;90.70;;;;;;2070100;28;20120;-85
2021/05/27 01:42:26;;;;;;;8.07;4.35;;;10.40;90.70;;;;;;2056028;28;20089;-83
2021/05/27 01:43:28;;;;;;;8.15;4.53;;;10.30;90.70;;;;;;2058531;28;20027;-84
2021/05/27 01:44:29;;;;;;;9.90;4.60;;;10.30;90.70;;;;;;2061959;28;20042;-84
2021/05/27 01:45:30;;;;;;;8.32;4.70;;;10.30;90.70;;;;;;2058893;28;20499;-84
2021/05/27 01:46:30;;;;;;;8.57;4.10;;;10.30;90.80;;;;;;2059374;28;20038;-85
2021/05/27 01:47:31;;;;;;;7.93;4.43;;;10.30;90.80;;;;;;2055406;28;20102;-84
2021/05/27 01:48:32;;;;;;;8.85;4.47;;;10.30;90.80;;;;;;2063956;28;20078;-84
2021/05/27 01:49:33;;;;;;;8.30;4.38;;;10.30;90.80;;;;;;2064338;28;20338;-85
2021/05/27 01:50:34;;;;;;;7.03;4.18;;;10.30;90.80;;;;;;2065996;28;20022;-85
2021/05/27 01:51:35;;;;;;;7.63;4.30;;;10.30;90.80;;;;;;2082168;28;20033;-84
2021/05/27 01:52:36;;;;;;;7.40;4.38;;;10.30;90.90;;;;;;2074721;28;20461;-85
2021/05/27 01:53:37;;;;;;;10.00;4.63;;;10.20;90.80;;;;;;2076723;28;20537;-85
2021/05/27 01:54:38;;;;;;;11.57;4.70;;;10.30;90.90;;;;;;2063856;28;20088;-85
2021/05/27 01:55:43;;;;;;;9.55;4.90;;;10.20;90.80;;;;;;2071701;28;20492;-85
2021/05/27 01:56:44;;;;;;;7.88;4.32;;;10.20;91.20;;;;;;2072221;28;20030;-85
2021/05/27 01:57:45;;;;;;;9.30;4.40;;;10.30;90.90;;;;;;2069544;28;20029;-85
2021/05/27 01:58:46;;;;;;;8.02;4.55;;;10.30;90.90;;;;;;2076561;28;20029;-85
2021/05/27 01:59:46;;;;;;;7.82;4.30;;;10.30;90.90;;;;;;2064077;28;20085;-85
2021/05/27 02:00:47;;;;;;;7.10;4.22;;;10.20;90.90;;;;;;2053328;28;20342;-84
2021/05/27 02:01:48;;;;;;;9.07;4.40;;;10.20;90.90;;;;;;2071903;28;20018;-85
2021/05/27 02:02:49;;;;;;;9.75;4.38;;;10.20;90.90;;;;;;2071116;28;20535;-86
2021/05/27 02:03:49;;;;;;;7.47;4.38;;;10.20;90.90;;;;;;2062512;28;20547;-84
2021/05/27 02:04:50;;;;;;;8.38;4.40;;;10.20;90.90;;;;;;2055775;28;20117;-85
2021/05/27 02:05:50;;;;;;;8.02;4.28;;;10.20;91.00;;;;;;2057061;28;20041;-85
2021/05/27 02:06:52;;;;;;;8.32;4.22;;;10.20;91.00;;;;;;2075657;28;20124;-85
2021/05/27 02:07:52;;;;;;;7.55;3.90;;;10.20;91.00;;;;;;2078804;28;20037;-84
2021/05/27 02:09:11;;;;;;;9.25;4.18;;;10.20;91.00;;;;;;2069826;28;20038;-85
2021/05/27 02:10:12;;;;;;;8.55;4.70;;;10.20;91.00;;;;;;2070831;28;20369;-84
2021/05/27 02:11:13;;;;;;;8.18;4.05;;;10.20;91.00;;;;;;2067575;28;20036;-84
2021/05/27 02:12:13;;;;;;;7.45;3.88;;;10.20;91.00;;;;;;2071348;28;20026;-85
2021/05/27 02:13:14;;;;;;;10.65;4.45;;;10.20;91.00;;;;;;2065373;28;20078;-85
2021/05/27 02:14:16;;;;;;;6.38;4.07;;;10.20;91.00;;;;;;2068799;28;20470;-84
2021/05/27 02:15:17;;;;;;;8.60;4.05;;;10.20;91.00;;;;;;2078942;28;20396;-84
2021/05/27 02:16:17;;;;;;;7.80;4.05;;;10.20;91.00;;;;;;2064941;28;20035;-85
2021/05/27 02:17:18;;;;;;;9.48;4.30;;;10.20;91.00;;;;;;2054749;28;20434;-85
2021/05/27 02:18:18;;;;;;;7.10;4.25;;;10.20;91.10;;;;;;2062933;28;20078;-85
2021/05/27 02:19:20;;;;;;;9.73;4.20;;;10.20;91.10;;;;;;2072455;28;20133;-85
2021/05/27 02:20:21;;;;;;;7.57;4.20;;;10.20;91.10;;;;;;2065451;28;20030;-84
2021/05/27 02:21:21;;;;;;;7.75;4.07;;;10.20;91.10;;;;;;2058193;28;20023;-84
2021/05/27 02:22:22;;;;;;;6.85;4.25;;;10.20;91.10;;;;;;2057743;28;20109;-84
2021/05/27 02:23:22;;;;;;;8.25;4.70;;;10.20;91.40;;;;;;2058441;28;20035;-84
2021/05/27 02:24:23;;;;;;;7.40;4.20;;;10.20;91.10;;;;;;2062321;28;20034;-85
2021/05/27 02:25:24;;;;;;;8.45;4.07;;;10.20;91.10;;;;;;2066820;28;20063;-84
2021/05/27 02:26:26;;;;;;;7.43;4.38;;;10.20;91.10;;;;;;2075053;28;20041;-85
2021/05/27 02:27:27;;;;;;;8.75;4.38;;;10.20;91.10;;;;;;2082320;28;20041;-84
2021/05/27 02:28:27;;;;;;;6.22;3.95;;;10.20;91.40;;;;;;2075042;28;20044;-85
2021/05/27 02:29:28;;;;;;;6.30;3.97;;;10.20;91.10;;;;;;2063926;28;20045;-85
2021/05/27 02:30:29;;;;;;;5.68;3.90;;;10.20;91.10;;;;;;2067266;28;20054;-85
2021/05/27 02:31:29;;;;;;;6.18;3.80;;;10.20;91.20;;;;;;2070568;28;20073;-85
2021/05/27 02:32:31;;;;;;;7.72;3.80;;;10.20;91.20;;;;;;2065553;28;20018;-85
2021/05/27 02:33:33;;;;;;;7.78;4.20;;;10.20;91.10;;;;;;2049697;28;20045;-85
2021/05/27 02:34:33;;;;;;;6.50;4.05;;;10.20;91.10;;;;;;2057034;28;20098;-85
2021/05/27 02:35:34;;;;;;;6.47;3.80;;;10.20;91.10;;;;;;2073462;28;20030;-85
2021/05/27 02:36:34;;;;;;;6.60;4.00;;;10.20;91.10;;;;;;2073102;28;20034;-85
2021/05/27 02:37:35;;;;;;;7.45;4.00;;;10.20;91.20;;;;;;2064877;28;20136;-85
2021/05/27 02:38:36;;;;;;;9.20;4.72;;;10.20;91.40;;;;;;2071956;28;20054;-85
2021/05/27 02:39:37;;;;;;;6.03;3.85;;;10.20;91.10;;;;;;2075001;28;20440;-85
2021/05/27 02:40:38;;;;;;;7.97;4.03;;;10.20;91.20;;;;;;2065271;28;20113;-85
2021/05/27 02:41:39;;;;;;;7.32;3.90;;;10.20;91.20;;;;;;2065439;28;20030;-85
2021/05/27 02:42:39;;;;;;;7.10;3.80;;;10.20;91.10;;;;;;2064008;28;20034;-85
2021/05/27 02:43:40;;;;;;;7.05;4.10;;;10.20;91.20;;;;;;2065177;28;20042;-85
2021/05/27 02:44:41;;;;;;;7.22;3.83;;;10.20;91.20;;;;;;2084730;28;20592;-85
2021/05/27 02:45:41;;;;;;;6.38;3.95;;;10.20;91.20;;;;;;2071843;28;20022;-85
2021/05/27 02:46:42;;;;;;;8.13;4.03;;;10.20;91.20;;;;;;2062101;28;20054;-85
2021/05/27 02:47:42;;;;;;;6.97;3.67;;;10.20;91.20;;;;;;2071459;28;20038;-85
2021/05/27 02:48:43;;;;;;;7.07;4.28;;;10.20;91.20;;;;;;2083991;28;20084;-86
2021/05/27 02:49:44;;;;;;;6.90;3.78;;;10.10;91.20;;;;;;2069130;28;20437;-84
2021/05/27 02:50:44;;;;;;;8.25;4.22;;;10.20;91.20;;;;;;2065918;28;20044;-85
2021/05/27 02:51:47;;;;;;;8.43;4.22;;;10.10;91.20;;;;;;2065185;28;20441;-85
2021/05/27 02:52:47;;;;;;;7.85;4.20;;;10.20;91.20;;;;;;2080759;28;20026;-84
2021/05/27 02:53:48;;;;;;;7.13;3.70;;;10.10;91.20;;;;;;2065066;28;20501;-85
2021/05/27 02:54:48;;;;;;;6.57;4.35;;;10.20;91.30;;;;;;2057856;28;20542;-85
2021/05/27 02:55:50;;;;;;;7.18;4.00;;;10.10;91.30;;;;;;2060383;28;20488;-84
2021/05/27 02:56:50;;;;;;;7.32;3.70;;;10.20;91.30;;;;;;2065596;28;20026;-85
2021/05/27 02:57:51;;;;;;;8.13;3.90;;;10.10;91.20;;;;;;2073835;28;20062;-85
2021/05/27 02:58:52;;;;;;;7.03;4.30;;;10.20;91.30;;;;;;2063952;28;20038;-85
2021/05/27 02:59:53;;;;;;;8.27;4.10;;;10.20;91.30;;;;;;2072915;28;20136;-85
2021/05/27 03:00:53;;;;;;;8.45;4.30;;;10.10;91.30;;;;;;2074232;28;20440;-84
2021/05/27 03:01:54;;;;;;;8.20;4.07;;;10.10;91.30;;;;;;2064541;28;20039;-85
2021/05/27 03:02:55;;;;;;;8.30;4.63;;;10.10;91.30;;;;;;2062973;28;20065;-85
2021/05/27 03:03:56;;;;;;;7.60;4.90;;;10.10;91.30;;;;;;2070397;28;20042;-85
2021/05/27 03:04:56;;;;;;;9.13;5.00;;;10.10;91.30;;;;;;2075531;28;20038;-85
2021/05/27 03:05:58;;;;;;;9.48;4.70;;;10.10;91.30;;;;;;2061428;28;20033;-84
2021/05/27 03:06:58;;;;;;;10.05;4.35;;;10.10;91.30;;;;;;2073501;28;20030;-84
2021/05/27 03:07:59;;;;;;;7.90;4.40;;;10.10;91.30;;;;;;2070978;28;20447;-85
2021/05/27 03:09:00;;;;;;;7.90;4.00;;;10.10;91.30;;;;;;2074968;28;20026;-85
2021/05/27 03:10:02;;;;;;;5.82;3.85;;;10.10;91.30;;;;;;2070722;28;20050;-85
2021/05/27 03:11:03;;;;;;;7.60;4.60;;;10.10;91.40;;;;;;2065143;28;20046;-85
2021/05/27 03:12:04;;;;;;;7.78;4.28;;;10.10;91.40;;;;;;2065917;28;20023;-84
2021/05/27 03:13:07;;;;;;;7.32;4.30;;;10.10;91.40;;;;;;2076513;28;20431;-85
2021/05/27 03:14:07;;;;;;;6.65;4.05;;;10.10;91.40;;;;;;2077628;28;20053;-85
2021/05/27 03:15:08;;;;;;;6.72;3.80;;;10.10;91.40;;;;;;2075225;28;20018;-85
2021/05/27 03:16:09;;;;;;;6.72;4.20;;;10.10;91.40;;;;;;2065581;28;20132;-85
2021/05/27 03:17:10;;;;;;;8.52;4.18;;;10.10;91.40;;;;;;2073769;28;20032;-85
2021/05/27 03:18:10;;;;;;;7.88;4.07;;;10.10;91.40;;;;;;2072446;28;20510;-85
2021/05/27 03:19:11;;;;;;;8.27;4.30;;;10.10;91.40;;;;;;2070765;28;20022;-85
2021/05/27 03:20:12;;;;;;;6.53;3.90;;;10.10;91.60;;;;;;2065074;28;20030;-85
2021/05/27 03:21:13;;;;;;;8.27;4.53;;;10.10;91.40;;;;;;2059027;28;20031;-86
2021/05/27 03:22:13;;;;;;;7.03;4.30;;;10.10;91.40;;;;;;2065532;28;20062;-85
2021/05/27 03:23:14;;;;;;;7.78;4.47;;;10.10;91.40;;;;;;2060683;28;20034;-85
2021/05/27 03:24:15;;;;;;;6.78;4.10;;;10.10;91.40;;;;;;2064367;28;20138;-85
2021/05/27 03:25:16;;;;;;;8.10;4.63;;;10.10;91.40;;;;;;2067416;28;20419;-85
2021/05/27 03:26:17;;;;;;;9.77;4.55;;;10.10;91.40;;;;;;2061953;28;20026;-86
2021/05/27 03:27:17;;;;;;;8.63;4.20;;;10.10;91.40;;;;;;2064617;28;20057;-85
2021/05/27 03:28:18;;;;;;;6.57;4.00;;;10.10;91.40;;;;;;2064241;28;20042;-85
2021/05/27 03:29:19;;;;;;;7.13;3.97;;;10.10;91.40;;;;;;2059945;28;20065;-85
2021/05/27 03:30:20;;;;;;;8.48;4.65;;;10.10;91.50;;;;;;2057723;28;20035;-85
2021/05/27 03:31:21;;;;;;;8.23;4.57;;;10.10;91.50;;;;;;2069808;28;20117;-86
2021/05/27 03:32:21;;;;;;;9.52;4.60;;;10.10;91.50;;;;;;2064322;28;20042;-85
2021/05/27 03:33:22;;;;;;;7.93;4.47;;;10.10;91.50;;;;;;2063250;28;20058;-85
2021/05/27 03:34:23;;;;;;;8.70;4.53;;;10.10;91.50;;;;;;2065259;28;20033;-86
2021/05/27 03:35:24;;;;;;;8.32;4.38;;;10.10;91.50;;;;;;2065862;28;20489;-85
2021/05/27 03:36:25;;;;;;;8.52;4.47;;;10.10;91.50;;;;;;2061581;28;20041;-86
2021/05/27 03:37:25;;;;;;;9.00;5.13;;;10.10;91.50;;;;;;2061761;28;20033;-86
2021/05/27 03:38:26;;;;;;;8.43;5.28;;;10.00;91.50;;;;;;2067827;28;20073;-86
2021/05/27 03:39:27;;;;;;;9.32;4.65;;;10.10;91.50;;;;;;2069879;28;20117;-86
2021/05/27 03:40:27;;;;;;;6.07;4.57;;;10.10;91.50;;;;;;2054262;28;20460;-86
2021/05/27 03:41:28;;;;;;;9.73;4.90;;;10.10;91.50;;;;;;2062227;28;20034;-85
2021/05/27 03:42:29;;;;;;;6.50;4.47;;;10.00;91.50;;;;;;2078522;28;20037;-86
2021/05/27 03:43:29;;;;;;;7.25;4.40;;;10.10;91.50;;;;;;2064273;28;20074;-86
2021/05/27 03:44:30;;;;;;;8.02;4.63;;;10.00;91.50;;;;;;2062650;28;20034;-86
2021/05/27 03:45:33;;;;;;;6.55;4.15;;;10.00;91.50;;;;;;2062780;28;20022;-85
2021/05/27 03:46:35;;;;;;;7.20;4.60;;;10.10;91.50;;;;;;2063439;28;20034;-86
2021/05/27 03:47:36;;;;;;;8.02;4.47;;;10.00;91.60;;;;;;2072920;28;20046;-86
2021/05/27 03:48:37;;;;;;;7.43;4.07;;;10.00;91.60;;;;;;2073061;28;20400;-86
2021/05/27 03:49:37;;;;;;;7.18;4.55;;;10.00;91.60;;;;;;2073567;28;20563;-86
2021/05/27 03:50:38;;;;;;;6.78;4.00;;;10.00;91.60;;;;;;2073111;28;20026;-86
2021/05/27 03:51:39;;;;;;;7.43;4.45;;;10.00;91.60;;;;;;2057440;28;20034;-85
2021/05/27 03:52:40;;;;;;;7.95;4.10;;;10.00;91.60;;;;;;2056881;28;20054;-86
2021/05/27 03:53:41;;;;;;;8.13;4.13;;;10.00;91.60;;;;;;2080911;28;20076;-86
2021/05/27 03:54:46;;;;;;;7.55;4.32;;;10.00;91.60;;;;;;2070197;28;20043;-85
2021/05/27 03:55:47;;;;;;;7.47;4.25;;;10.00;91.60;;;;;;2063663;28;20026;-85
2021/05/27 03:56:47;;;;;;;7.22;4.30;;;10.00;91.60;;;;;;2076709;28;20107;-86
2021/05/27 03:57:49;;;;;;;7.07;3.90;;;10.00;91.60;;;;;;2074004;28;20116;-85
2021/05/27 04:00:45;;;;;;;7.05;3.88;;;10.00;91.60;;;;;;2040376;29;20047;-86
2021/05/27 04:01:46;;;;;;;7.00;4.25;;;10.00;91.50;;;;;;2047919;29;20046;-86
2021/05/27 04:02:48;;;;;;;8.82;4.07;;;10.00;91.50;;;;;;2050232;28;20062;-86
2021/05/27 04:08:03;;;;;;;7.15;4.05;;;9.90;91.80;;;;;;2071632;28;20048;-86
2021/05/27 04:09:04;;;;;;;7.32;4.10;;;9.90;91.50;;;;;;2067837;28;20026;-85
2021/05/27 04:10:05;;;;;;;6.10;4.00;;;10.00;91.80;;;;;;2064098;28;20061;-85
2021/05/27 04:11:06;;;;;;;9.52;3.95;;;9.90;91.50;;;;;;2063854;28;20066;-86
2021/05/27 04:13:27;;;;;;;7.77;4.03;;;10.00;91.60;;;;;;2075585;28;20550;-86
2021/05/27 04:14:27;;;;;;;6.60;3.90;;;10.00;91.50;;;;;;2081228;28;20320;-85
2021/05/27 04:15:32;;;;;;;5.90;3.63;;;10.00;91.50;;;;;;2065042;28;20097;-86
2021/05/27 04:16:34;;;;;;;7.03;3.40;;;10.00;91.60;;;;;;2070756;28;20030;-85
2021/05/27 04:17:35;;;;;;;9.07;3.78;;;10.00;91.60;;;;;;2069025;28;20022;-85
2021/05/27 04:18:36;;;;;;;8.15;3.90;;;10.00;91.60;;;;;;2064627;28;20113;-85
2021/05/27 04:19:36;;;;;;;7.10;4.10;;;10.00;91.60;;;;;;2056750;28;20031;-85
2021/05/27 04:20:42;;;;;;;6.97;3.95;;;10.00;91.60;;;;;;2056836;28;20062;-84
2021/05/27 04:21:43;;;;;;;7.28;3.83;;;10.00;91.60;;;;;;2072574;28;20100;-85
2021/05/27 04:22:45;;;;;;;9.13;4.20;;;10.00;91.60;;;;;;2072269;28;20117;-87
2021/05/27 04:23:45;;;;;;;10.23;3.70;;;10.00;91.60;;;;;;2066129;28;20026;-86
2021/05/27 04:24:46;;;;;;;5.95;4.00;;;10.00;91.60;;;;;;2077258;28;20551;-84
2021/05/27 04:25:47;;;;;;;7.72;4.10;;;10.00;91.60;;;;;;2076229;28;20112;-85
2021/05/27 04:26:47;;;;;;;9.40;4.00;;;10.00;91.60;;;;;;2061740;28;20389;-84
2021/05/27 04:27:49;;;;;;;6.80;4.03;;;10.00;91.60;;;;;;2066775;28;20038;-84
2021/05/27 04:28:49;;;;;;;8.10;3.90;;;9.90;91.60;;;;;;2064858;28;20129;-84
2021/05/27 04:29:53;;;;;;;8.50;4.25;;;10.00;91.70;;;;;;2062476;28;20157;-84
2021/05/27 04:31:09;;;;;;;5.88;3.38;;;10.00;91.70;;;;;;2057190;28;20535;-85
2021/05/27 04:32:53;;;;;;;7.30;4.10;;;10.00;91.70;;;;;;2072571;28;20026;-84
2021/05/27 04:33:30;;;;;;;7.10;3.40;;;9.90;91.60;;;;;;2072057;28;20099;-85
2021/05/27 04:34:31;;;;;;;9.77;3.88;;;10.00;91.70;;;;;;2066875;28;20025;-84
2021/05/27 04:35:41;;;;;;;6.55;3.53;;;10.00;91.70;;;;;;2056508;28;20501;-85
2021/05/27 04:36:42;;;;;;;5.75;3.55;;;10.00;91.70;;;;;;2058763;28;20031;-85
2021/05/27 04:37:42;;;;;;;5.50;3.47;;;10.00;91.70;;;;;;2063924;28;20133;-84
2021/05/27 04:38:45;;;;;;;6.28;3.35;;;10.00;91.70;;;;;;2057355;28;20509;-85
2021/05/27 04:39:45;;;;;;;6.38;3.10;;;10.00;91.70;;;;;;2072880;28;20029;-85
2021/05/27 04:40:48;;;;;;;5.40;3.22;;;10.00;91.70;;;;;;2067019;28;20031;-84
2021/05/27 04:41:48;;;;;;;5.72;3.33;;;10.00;91.70;;;;;;2066546;28;20054;-85
2021/05/27 04:42:49;;;;;;;7.15;3.47;;;10.00;91.70;;;;;;2070731;28;20045;-84
2021/05/27 04:43:53;;;;;;;6.57;3.30;;;10.00;91.70;;;;;;2070891;28;20022;-84
2021/05/27 04:44:54;;;;;;;6.03;3.60;;;10.00;91.70;;;;;;2067892;28;20073;-84
2021/05/27 04:45:55;;;;;;;5.22;2.95;;;10.00;91.70;;;;;;2063692;28;20019;-84
2021/05/27 04:46:55;;;;;;;5.80;3.38;;;10.00;91.70;;;;;;2063005;28;20477;-85
2021/05/27 04:47:57;;;;;;;6.38;3.20;;;10.00;91.70;;;;;;2056219;28;20035;-84
2021/05/27 04:48:57;;;;;;;4.78;3.00;;;10.00;91.70;;;;;;2063555;28;20080;-85
2021/05/27 04:49:58;;;;;;;5.68;3.40;;;10.00;91.70;;;;;;2080745;28;20392;-85
2021/05/27 04:50:59;;;;;;;5.90;3.22;;;10.00;91.70;;;;;;2079622;28;20112;-85
2021/05/27 04:52:00;;;;;;;6.30;3.17;;;10.00;91.70;;;;;;2070733;28;20523;-84
2021/05/27 04:53:00;;;;;;;8.13;3.75;;;10.00;91.70;;;;;;2068464;28;20203;-85
2021/05/27 04:54:01;;;;;;;7.65;3.42;;;10.00;91.70;;;;;;2074545;28;20119;-84
2021/05/27 04:55:06;;;;;;;6.80;3.40;;;10.10;91.70;;;;;;2070166;28;20037;-84
2021/05/27 04:56:06;;;;;;;6.07;3.40;;;10.00;91.70;;;;;;2076682;28;20128;-84
2021/05/27 04:57:07;;;;;;;9.77;3.85;;;10.00;91.70;;;;;;2063676;28;20080;-85
2021/05/27 04:58:08;;;;;;;5.85;3.35;;;10.00;91.70;;;;;;2061794;28;20038;-85
2021/05/27 04:59:08;;;;;;;6.05;3.45;;;10.10;91.70;;;;;;2064333;28;20057;-85
2021/05/27 05:00:14;;;;;;;5.72;2.88;;;10.10;91.70;;;;;;2072345;28;20180;-85
2021/05/27 05:01:14;;;;;;;6.75;3.33;;;10.10;91.70;;;;;;2071222;28;20145;-84
2021/05/27 05:02:15;;;;;;;6.43;3.47;;;10.10;91.70;;;;;;2072381;28;20034;-85
2021/05/27 05:03:16;;;;;;;8.18;3.55;;;10.10;91.70;;;;;;2072318;28;20050;-84
2021/05/27 05:04:16;;;;;;;6.28;3.58;;;10.10;91.70;;;;;;2080533;28;20087;-84
2021/05/27 05:05:18;;;;;;;7.22;3.25;;;10.10;91.70;;;;;;2078840;28;20029;-84
2021/05/27 05:06:18;;;;;;;7.05;3.28;;;10.10;91.70;;;;;;2072506;28;20507;-85
2021/05/27 05:07:19;;;;;;;6.30;3.20;;;10.10;91.70;;;;;;2064003;28;20027;-85
2021/05/27 05:08:20;;;;;;;6.38;3.20;;;10.10;91.70;;;;;;2064438;28;20042;-85
2021/05/27 05:09:20;;;;;;;6.28;3.10;;;10.10;91.70;;;;;;2071247;28;20022;-84
2021/05/27 05:10:24;;;;;;;7.05;3.40;;;10.10;91.70;;;;;;2063987;28;20030;-84
2021/05/27 05:11:25;;;;;;;7.30;3.40;;;10.10;91.70;;;;;;2067621;28;20030;-84
2021/05/27 05:12:25;;;;;;;6.25;3.30;;;10.10;91.70;;;;;;2073977;28;20030;-84
2021/05/27 05:13:26;;;;;;;5.88;3.00;;;10.10;91.70;;;;;;2063673;28;20029;-85
2021/05/27 05:14:27;;;;;;;5.22;3.15;;;10.10;91.70;;;;;;2067612;28;20058;-84
2021/05/27 05:15:28;;;;;;;6.90;3.33;;;10.10;91.70;;;;;;2084696;28;20021;-83
2021/05/27 05:16:29;;;;;;;7.10;3.50;;;10.10;91.70;;;;;;2076541;28;20029;-84
2021/05/27 05:17:30;;;;;;;7.15;3.35;;;10.20;91.70;;;;;;2071160;28;20057;-85
2021/05/27 05:18:30;;;;;;;7.35;3.40;;;10.10;91.70;;;;;;2078577;28;20045;-85
2021/05/27 05:19:31;;;;;;;6.05;3.20;;;10.10;91.70;;;;;;2067348;28;20034;-85
2021/05/27 05:20:34;;;;;;;7.00;3.50;;;10.10;91.70;;;;;;2066823;28;20460;-84
2021/05/27 05:21:35;;;;;;;6.03;3.30;;;10.20;91.70;;;;;;2072618;28;20026;-84
2021/05/27 05:22:36;;;;;;;5.82;3.33;;;10.10;91.70;;;;;;2072467;28;20022;-85
2021/05/27 05:23:37;;;;;;;7.60;3.13;;;10.10;91.70;;;;;;2073565;28;20034;-83
2021/05/27 05:24:38;;;;;;;7.13;3.40;;;10.10;91.70;;;;;;2077654;28;20472;-84
2021/05/27 05:25:40;;;;;;;6.55;3.20;;;10.10;91.70;;;;;;2069122;28;21477;-85
2021/05/27 05:26:41;;;;;;;5.68;3.05;;;10.10;91.70;;;;;;2071478;28;20069;-84
2021/05/27 05:27:42;;;;;;;7.78;3.47;;;10.10;91.70;;;;;;2067356;28;20029;-84
2021/05/27 05:28:42;;;;;;;6.80;3.33;;;10.20;91.70;;;;;;2067166;28;20034;-83